Sepang, Malaysia
Current Conditions -  °F | °C
As of 5:30 PM on Saturday 29 Nov 2014 (Local Time) from WMKK Reporting Station
Thunderstorm Thunderstorm  
Wind Chill: 73°   Ceiling: 26000
Heat Index: 73°   Visibility: 4mi
Dew Point: 72°   Wind: 5mph
Humidity: 94%   Direction: 10°N
Pressure: 29.77"   Gusts: NA
Location:  2.69°N, 101.76°E
Report Text: WMKK 290930Z 01004KT 320V060 6000 TSRA FEW007 FEW017CB SCT140 BKN260 23/22 Q1008 NOSIG
Loading
Personal Weather Stations






























Interactive Weather Map New forecast layout! Learn more

10-Day Weather Forecast

Advertisements
Track Severe Weather on mobile